createdAt,value
2023-02-05T00:01:43.965Z,1.88
2023-02-05T00:04:17.413Z,1.90
2023-02-05T00:06:50.770Z,1.96
2023-02-05T00:09:23.981Z,1.91
2023-02-05T00:11:59.279Z,1.82
2023-02-05T00:14:35.090Z,1.67
2023-02-05T00:17:09.066Z,1.71
2023-02-05T00:19:42.316Z,1.61
2023-02-05T00:22:15.596Z,1.56
2023-02-05T00:24:48.876Z,1.51
2023-02-05T00:27:22.091Z,1.45
2023-02-05T00:29:56.614Z,1.44
2023-02-05T00:32:30.474Z,1.31
2023-02-05T00:35:04.060Z,1.32
2023-02-05T00:37:37.438Z,1.23
2023-02-05T00:40:11.914Z,1.17
2023-02-05T00:42:45.097Z,1.17
2023-02-05T00:45:19.748Z,1.09
2023-02-05T00:47:53.312Z,1.08
2023-02-05T00:50:26.681Z,1.10
2023-02-05T00:53:00.280Z,0.98
2023-02-05T00:55:34.046Z,1.07
2023-02-05T00:58:07.513Z,1.06
2023-02-05T01:00:42.416Z,0.99
2023-02-05T01:03:15.704Z,1.09
2023-02-05T01:05:50.325Z,1.02
2023-02-05T01:08:23.733Z,0.92
2023-02-05T01:10:57.889Z,0.91
2023-02-05T01:13:31.781Z,0.74
2023-02-05T01:16:07.919Z,0.82
2023-02-05T01:18:41.456Z,0.86
2023-02-05T01:21:15.000Z,0.79
2023-02-05T01:23:48.704Z,0.67
2023-02-05T01:26:22.273Z,0.63
2023-02-05T01:28:55.390Z,0.63
2023-02-05T01:31:30.827Z,0.63
2023-02-05T01:34:04.117Z,0.67
2023-02-05T01:36:37.477Z,0.71
2023-02-05T01:39:10.759Z,0.73
2023-02-05T01:41:45.831Z,0.67
2023-02-05T01:44:24.478Z,0.78
2023-02-05T01:46:59.086Z,0.80
2023-02-05T01:49:36.554Z,0.88
2023-02-05T01:52:14.115Z,0.72
2023-02-05T01:54:49.126Z,0.80
2023-02-05T01:57:26.226Z,0.83
2023-02-05T02:00:00.151Z,0.87
2023-02-05T02:02:36.711Z,0.88
2023-02-05T02:05:13.703Z,0.89
2023-02-05T02:07:47.871Z,0.82
2023-02-05T02:10:21.487Z,0.83
2023-02-05T02:12:56.486Z,0.88
2023-02-05T02:15:30.365Z,0.88
2023-02-05T02:18:18.732Z,0.78
2023-02-05T02:21:12.349Z,0.77
2023-02-05T02:24:03.819Z,0.75
2023-02-05T02:27:03.772Z,0.79
2023-02-05T02:29:43.144Z,0.58
2023-02-05T02:32:22.038Z,0.56
2023-02-05T02:35:02.413Z,0.43
2023-02-05T02:37:40.490Z,0.26
2023-02-05T02:40:21.550Z,0.24
2023-02-05T02:43:04.424Z,0.18
2023-02-05T02:45:47.381Z,0.19
2023-02-05T02:48:25.736Z,0.13
2023-02-05T02:51:01.307Z,0.17
2023-02-05T02:53:39.092Z,0.06
2023-02-05T02:56:14.877Z,0.05
2023-02-05T02:58:51.492Z,0.01
2023-02-05T03:01:32.695Z,-0.07
2023-02-05T03:04:10.813Z,-0.19
2023-02-05T03:06:46.817Z,-0.22
2023-02-05T03:09:27.502Z,-0.09
2023-02-05T03:12:01.813Z,-0.22
2023-02-05T03:14:36.797Z,-0.30
2023-02-05T03:17:18.599Z,-0.31
2023-02-05T03:19:59.391Z,-0.31
2023-02-05T03:22:32.962Z,-0.28
2023-02-05T03:25:08.866Z,-0.44
2023-02-05T03:27:42.544Z,-0.26
2023-02-05T03:30:16.033Z,-0.22
2023-02-05T03:33:01.778Z,-0.24
2023-02-05T03:35:41.588Z,-0.26
2023-02-05T03:38:30.469Z,-0.28
2023-02-05T03:41:18.003Z,-0.46
2023-02-05T03:44:02.373Z,-0.49
2023-02-05T03:46:46.200Z,-0.43
2023-02-05T03:49:29.294Z,-0.47
2023-02-05T03:52:07.393Z,-0.49
2023-02-05T03:54:44.981Z,-0.55
2023-02-05T03:57:24.207Z,-0.58
2023-02-05T03:59:58.858Z,-0.62
2023-02-05T04:02:32.878Z,-0.57
2023-02-05T04:05:07.796Z,-0.59
2023-02-05T04:07:41.003Z,-0.61
2023-02-05T04:10:14.803Z,-0.69
2023-02-05T04:12:49.106Z,-0.61
2023-02-05T04:15:22.909Z,-0.59
2023-02-05T04:17:57.997Z,-0.41
2023-02-05T04:20:32.968Z,-0.44
2023-02-05T04:23:06.220Z,-0.48
2023-02-05T04:25:39.848Z,-0.30
2023-02-05T04:28:13.869Z,-0.48
2023-02-05T04:30:47.364Z,-0.50
2023-02-05T04:33:20.765Z,-0.53
2023-02-05T04:35:59.989Z,-0.58
2023-02-05T04:38:33.298Z,-0.56
2023-02-05T04:41:08.096Z,-0.60
2023-02-05T04:43:41.285Z,-0.53
2023-02-05T04:46:14.531Z,-0.61
2023-02-05T04:48:48.404Z,-0.76
2023-02-05T04:51:23.364Z,-0.55
2023-02-05T04:53:56.631Z,-0.66
2023-02-05T04:56:29.987Z,-0.58
2023-02-05T04:59:03.223Z,-0.56
2023-02-05T05:01:36.599Z,-0.43
2023-02-05T05:04:10.325Z,-0.54
2023-02-05T05:06:45.250Z,-0.66
2023-02-05T05:09:20.917Z,-0.42
2023-02-05T05:11:56.452Z,-0.45
2023-02-05T05:14:30.344Z,-0.57
2023-02-05T05:17:03.948Z,-0.43
2023-02-05T05:19:37.419Z,-0.55
2023-02-05T05:22:12.977Z,-0.58
2023-02-05T05:24:46.339Z,-0.65
2023-02-05T05:27:19.764Z,-0.67
2023-02-05T05:29:53.001Z,-0.82
2023-02-05T05:32:27.600Z,-0.77
2023-02-05T05:35:00.810Z,-0.85
2023-02-05T05:37:35.610Z,-0.89
2023-02-05T05:40:28.456Z,-0.80
2023-02-05T05:43:19.014Z,-0.78
2023-02-05T05:45:54.118Z,-0.76
2023-02-05T05:48:28.885Z,-0.77
2023-02-05T05:51:02.283Z,-0.78
2023-02-05T05:53:37.093Z,-0.62
2023-02-05T05:56:10.733Z,-0.65
2023-02-05T05:58:44.396Z,-0.97
2023-02-05T06:01:21.160Z,-0.73
2023-02-05T06:03:54.347Z,-0.71
2023-02-05T06:06:27.774Z,-0.79
2023-02-05T06:09:02.543Z,-0.73
2023-02-05T06:11:36.184Z,-0.77
2023-02-05T06:14:09.681Z,-0.78
2023-02-05T06:16:43.006Z,-0.80
2023-02-05T06:19:16.512Z,-0.86
2023-02-05T06:21:49.974Z,-0.79
2023-02-05T06:24:24.558Z,-0.80
2023-02-05T06:26:57.987Z,-0.86
2023-02-05T06:29:31.433Z,-0.83
2023-02-05T06:32:04.946Z,-0.83
2023-02-05T06:34:38.353Z,-0.88
2023-02-05T06:37:11.779Z,-0.99
2023-02-05T06:39:46.491Z,-0.93
2023-02-05T06:42:19.893Z,-0.82
2023-02-05T06:44:53.312Z,-0.82
2023-02-05T06:47:26.934Z,-0.84
2023-02-05T06:50:00.448Z,-0.82
2023-02-05T06:52:33.677Z,-0.57
2023-02-05T06:55:09.023Z,-0.85
2023-02-05T06:57:42.162Z,-0.74
2023-02-05T07:00:16.750Z,-0.56
2023-02-05T07:02:50.252Z,-0.66
2023-02-05T07:05:23.790Z,-0.76
2023-02-05T07:07:57.099Z,-0.48
2023-02-05T07:10:32.078Z,-0.50
2023-02-05T07:13:06.223Z,-0.49
2023-02-05T07:15:40.381Z,-0.35
2023-02-05T07:18:13.810Z,-0.40
2023-02-05T07:20:48.222Z,-0.28
2023-02-05T07:23:21.584Z,-0.33
2023-02-05T07:25:56.108Z,-0.33
2023-02-05T07:28:29.425Z,-0.40
2023-02-05T07:31:04.703Z,-0.39
2023-02-05T07:33:38.618Z,-0.31
2023-02-05T07:36:13.657Z,-0.29
2023-02-05T07:38:48.310Z,-0.27
2023-02-05T07:41:22.920Z,-0.36
2023-02-05T07:43:56.320Z,-0.37
2023-02-05T07:46:29.784Z,-0.38
2023-02-05T07:49:03.388Z,-0.35
2023-02-05T07:51:36.801Z,-0.34
2023-02-05T07:54:11.167Z,-0.42
2023-02-05T07:56:46.028Z,-0.36
2023-02-05T07:59:19.449Z,-0.31
2023-02-05T08:01:52.921Z,-0.41
2023-02-05T08:04:26.457Z,-0.28
2023-02-05T08:07:00.303Z,-0.38
2023-02-05T08:09:34.315Z,-0.48
2023-02-05T08:12:09.955Z,-0.46
2023-02-05T08:14:43.713Z,-0.22
2023-02-05T08:17:17.453Z,-0.25
2023-02-05T08:19:52.007Z,-0.39
2023-02-05T08:22:25.594Z,-0.44
2023-02-05T08:24:59.106Z,-0.28
2023-02-05T08:27:35.092Z,-0.26
2023-02-05T08:30:11.795Z,-0.44
2023-02-05T08:32:49.322Z,-0.51
2023-02-05T08:35:22.687Z,-0.02
2023-02-05T08:37:56.291Z,-0.11
2023-02-05T08:40:30.105Z,-0.28
2023-02-05T08:43:04.974Z,0.00
2023-02-05T08:45:38.906Z,-0.11
2023-02-05T08:48:12.247Z,-0.12
2023-02-05T08:50:47.347Z,0.03
2023-02-05T08:53:21.321Z,-0.07
2023-02-05T08:55:57.058Z,-0.06
2023-02-05T08:58:32.120Z,-0.12
2023-02-05T09:01:07.372Z,-0.12
2023-02-05T09:03:40.958Z,-0.06
2023-02-05T09:06:16.764Z,-0.02
2023-02-05T09:08:50.010Z,0.15
2023-02-05T09:11:26.689Z,0.25
2023-02-05T09:14:01.860Z,0.01
2023-02-05T09:16:36.217Z,0.04
2023-02-05T09:19:09.946Z,-0.05
2023-02-05T09:21:43.473Z,0.08
2023-02-05T09:24:16.808Z,0.14
2023-02-05T09:26:50.029Z,0.26
2023-02-05T09:29:24.818Z,0.18
2023-02-05T09:31:58.904Z,0.07
2023-02-05T09:34:33.200Z,0.07
2023-02-05T09:37:06.904Z,0.04
2023-02-05T09:42:43.166Z,0.19
2023-02-05T09:45:38.511Z,0.16
2023-02-05T09:48:33.789Z,0.11
2023-02-05T09:51:11.153Z,0.21
2023-02-05T09:53:49.820Z,0.39
2023-02-05T09:56:24.365Z,0.47
2023-02-05T09:58:58.963Z,0.48
2023-02-05T10:01:41.979Z,0.36
2023-02-05T10:04:16.248Z,0.02
2023-02-05T10:07:20.785Z,0.42
2023-02-05T10:10:18.355Z,0.27
2023-02-05T10:13:29.220Z,0.38
2023-02-05T10:16:35.924Z,0.42
2023-02-05T10:19:38.417Z,-0.05
2023-02-05T10:22:23.531Z,-0.03
2023-02-05T10:25:34.846Z,0.06
2023-02-05T10:28:23.750Z,0.04
2023-02-05T10:31:04.880Z,0.12
2023-02-05T10:33:48.118Z,-0.09
2023-02-05T10:36:27.289Z,0.16
2023-02-05T10:39:01.780Z,0.01
2023-02-05T10:41:39.711Z,0.10
2023-02-05T10:44:19.650Z,-0.07
2023-02-05T10:47:01.778Z,-0.11
2023-02-05T10:49:45.748Z,-0.14
2023-02-05T10:52:20.680Z,0.08
2023-02-05T10:54:54.234Z,0.02
2023-02-05T10:57:32.534Z,-0.09
2023-02-05T11:00:14.332Z,-0.41
2023-02-05T11:02:51.749Z,-0.15
2023-02-05T11:05:31.581Z,-0.05
2023-02-05T11:08:06.652Z,-0.44
2023-02-05T11:10:39.991Z,0.29
2023-02-05T11:13:20.093Z,0.38
2023-02-05T11:15:58.899Z,0.51
2023-02-05T11:18:37.821Z,0.50
2023-02-05T11:21:12.201Z,0.54
2023-02-05T11:23:56.613Z,0.33
2023-02-05T11:26:29.924Z,0.39
2023-02-05T11:29:20.731Z,0.52
2023-02-05T11:31:54.334Z,0.48
2023-02-05T11:34:27.841Z,0.62
2023-02-05T11:37:01.358Z,0.56
2023-02-05T11:39:39.020Z,0.34
2023-02-05T11:42:20.195Z,0.56
2023-02-05T11:44:56.419Z,0.71
2023-02-05T11:47:32.970Z,0.46
2023-02-05T11:50:19.439Z,0.46
2023-02-05T11:52:53.781Z,0.57
2023-02-05T11:55:32.497Z,0.48
2023-02-05T11:58:25.120Z,0.20
2023-02-05T12:01:23.978Z,0.46
2023-02-05T12:04:02.120Z,0.23
2023-02-05T12:06:42.462Z,0.28
2023-02-05T12:09:21.237Z,0.38
2023-02-05T12:12:11.356Z,0.56
2023-02-05T12:14:50.884Z,0.46
2023-02-05T12:17:39.858Z,0.38
2023-02-05T12:20:24.066Z,0.19
2023-02-05T12:23:15.880Z,0.26
2023-02-05T12:26:03.484Z,0.33
2023-02-05T12:28:51.772Z,0.32
2023-02-05T12:31:38.063Z,0.32
2023-02-05T12:34:24.433Z,0.24
2023-02-05T12:37:10.689Z,0.20
2023-02-05T12:39:47.998Z,0.33
2023-02-05T12:42:32.789Z,0.31
2023-02-05T12:45:28.272Z,0.20
2023-02-05T12:48:14.680Z,0.18
2023-02-05T12:51:02.206Z,0.05
2023-02-05T12:54:01.175Z,0.04
2023-02-05T12:56:50.535Z,-0.12
2023-02-05T12:59:36.470Z,-0.03
2023-02-05T13:02:23.928Z,0.06
2023-02-05T13:05:09.886Z,-0.04
2023-02-05T13:07:46.660Z,0.12
2023-02-05T13:10:25.008Z,0.16
2023-02-05T13:13:06.072Z,0.39
2023-02-05T13:15:43.750Z,0.40
2023-02-05T13:18:24.888Z,0.44
2023-02-05T13:21:19.222Z,0.39
2023-02-05T13:24:12.432Z,0.41
2023-02-05T13:27:06.021Z,0.34
2023-02-05T13:29:51.299Z,0.22
2023-02-05T13:32:31.218Z,0.47
2023-02-05T13:35:08.551Z,0.67
2023-02-05T13:38:11.463Z,0.43
2023-02-05T13:41:00.651Z,0.23
2023-02-05T13:44:02.115Z,0.30
2023-02-05T13:47:05.922Z,0.38
2023-02-05T13:49:56.875Z,0.23
2023-02-05T13:53:06.182Z,0.18
2023-02-05T13:55:50.741Z,0.21
2023-02-05T13:58:26.993Z,0.17
2023-02-05T14:01:03.580Z,0.12
2023-02-05T14:03:39.513Z,0.00
2023-02-05T14:06:15.952Z,-0.01
2023-02-05T14:08:53.084Z,-0.24
2023-02-05T14:11:26.832Z,0.14
2023-02-05T14:14:24.095Z,-0.09
2023-02-05T14:16:58.313Z,0.02
2023-02-05T14:19:56.983Z,-0.10
2023-02-05T14:22:42.374Z,0.03
2023-02-05T14:26:01.753Z,-0.06
2023-02-05T14:28:44.249Z,-0.21
2023-02-05T14:31:46.507Z,-0.18
2023-02-05T14:34:52.213Z,-0.36
2023-02-05T14:37:30.906Z,-0.22
2023-02-05T14:40:23.091Z,-0.39
2023-02-05T14:43:09.824Z,-0.24
2023-02-05T14:45:51.389Z,-0.46
2023-02-05T14:48:29.947Z,-0.51
2023-02-05T14:51:05.702Z,-0.37
2023-02-05T14:53:39.934Z,-0.35
2023-02-05T14:56:25.885Z,-0.27
2023-02-05T14:59:05.252Z,-0.42
2023-02-05T15:01:50.158Z,-0.46
2023-02-05T15:04:30.241Z,-0.47
2023-02-05T15:07:11.181Z,-0.50
2023-02-05T15:09:49.665Z,-0.55
2023-02-05T15:12:40.273Z,-0.54
2023-02-05T15:15:32.395Z,-0.54
2023-02-05T15:18:14.756Z,-0.39
2023-02-05T15:20:50.150Z,-0.63
2023-02-05T15:23:36.799Z,-0.72
2023-02-05T15:26:21.065Z,-0.64
2023-02-05T15:29:00.951Z,-0.67
2023-02-05T15:31:41.412Z,-0.72
2023-02-05T15:34:31.066Z,-0.64
2023-02-05T15:37:07.707Z,-0.72
2023-02-05T15:39:49.665Z,-0.82
2023-02-05T15:42:31.837Z,-0.77
2023-02-05T15:45:18.835Z,-0.84
2023-02-05T15:48:00.286Z,-0.89
2023-02-05T15:50:38.792Z,-0.81
2023-02-05T15:53:27.372Z,-1.00
2023-02-05T15:56:01.956Z,-1.42
2023-02-05T15:58:36.102Z,-1.09
2023-02-05T16:01:09.461Z,-1.04
2023-02-05T16:03:42.945Z,-0.99
2023-02-05T16:06:20.991Z,-1.05
2023-02-05T16:08:54.488Z,-1.12
2023-02-05T16:11:30.278Z,-1.15
2023-02-05T16:14:06.688Z,-1.13
2023-02-05T16:16:43.059Z,-1.10
2023-02-05T16:19:22.988Z,-1.19
2023-02-05T16:22:02.283Z,-1.20
2023-02-05T16:24:42.288Z,-1.18
2023-02-05T16:27:18.851Z,-1.28
2023-02-05T16:29:56.576Z,-1.32
2023-02-05T16:32:34.340Z,-1.35
2023-02-05T16:35:14.837Z,-1.28
2023-02-05T16:37:49.518Z,-1.35
2023-02-05T16:40:35.432Z,-1.38
2023-02-05T16:43:21.398Z,-1.38
2023-02-05T16:46:25.881Z,-1.36
2023-02-05T16:49:01.816Z,-1.41
2023-02-05T16:51:53.602Z,-1.47
2023-02-05T16:54:31.782Z,-1.53
2023-02-05T16:57:12.764Z,-1.52
2023-02-05T16:59:52.771Z,-1.54
2023-02-05T17:02:30.591Z,-1.65
2023-02-05T17:05:06.431Z,-1.78
2023-02-05T17:07:40.421Z,-1.56
2023-02-05T17:10:21.513Z,-1.55
2023-02-05T17:12:57.981Z,-1.63
2023-02-05T17:15:35.189Z,-1.58
2023-02-05T17:18:25.346Z,-1.66
2023-02-05T17:21:21.071Z,-1.69
2023-02-05T17:23:56.874Z,-1.76
2023-02-05T17:26:34.813Z,-1.83
2023-02-05T17:29:09.893Z,-1.88
2023-02-05T17:31:43.813Z,-1.88
2023-02-05T17:34:17.357Z,-1.80
2023-02-05T17:36:51.570Z,-1.91
2023-02-05T17:39:25.247Z,-1.96
2023-02-05T17:42:07.784Z,-1.86
2023-02-05T17:44:41.226Z,-1.71
2023-02-05T17:47:14.673Z,-1.76
2023-02-05T17:49:48.085Z,-1.89
2023-02-05T17:52:21.409Z,-1.75
2023-02-05T17:54:54.608Z,-1.71
2023-02-05T17:57:33.787Z,-1.90
2023-02-05T18:00:08.327Z,-1.96
2023-02-05T18:02:41.898Z,-1.88
2023-02-05T18:05:15.204Z,-1.86
2023-02-05T18:07:51.881Z,-2.06
2023-02-05T18:10:27.461Z,-2.08
2023-02-05T18:13:03.065Z,-1.96
2023-02-05T18:15:36.735Z,-1.94
2023-02-05T18:18:10.913Z,-2.04
2023-02-05T18:20:44.576Z,-1.99
2023-02-05T18:23:28.382Z,-2.05
2023-02-05T18:26:03.022Z,-1.94
2023-02-05T18:28:37.978Z,-1.98
2023-02-05T18:31:11.569Z,-2.08
2023-02-05T18:33:45.791Z,-2.10
2023-02-05T18:36:19.267Z,-2.10
2023-02-05T18:38:52.503Z,-2.04
2023-02-05T18:41:28.582Z,-2.02
2023-02-05T18:44:03.589Z,-2.13
2023-02-05T18:46:37.061Z,-2.10
2023-02-05T18:49:10.516Z,-1.99
2023-02-05T18:51:44.146Z,-2.00
2023-02-05T18:54:17.444Z,-2.15
2023-02-05T18:56:51.755Z,-2.12
2023-02-05T18:59:26.582Z,-2.20
2023-02-05T19:02:00.157Z,-2.26
2023-02-05T19:04:34.006Z,-2.08
2023-02-05T19:07:07.248Z,-2.22
2023-02-05T19:09:40.468Z,-2.22
2023-02-05T19:12:14.281Z,-2.24
2023-02-05T19:14:49.387Z,-2.18
2023-02-05T19:17:27.272Z,-2.64
2023-02-05T19:20:00.556Z,-2.20
2023-02-05T19:22:33.876Z,-2.29
2023-02-05T19:25:07.990Z,-2.42
2023-02-05T19:27:41.284Z,-2.33
2023-02-05T19:30:16.442Z,-2.40
2023-02-05T19:32:50.179Z,-2.38
2023-02-05T19:35:24.264Z,-2.25
2023-02-05T19:37:57.588Z,-2.39
2023-02-05T19:40:30.800Z,-2.37
2023-02-05T19:43:04.248Z,-2.34
2023-02-05T19:45:39.166Z,-2.37
2023-02-05T19:48:12.953Z,-2.40
2023-02-05T19:50:46.456Z,-2.41
2023-02-05T19:53:21.286Z,-2.38
2023-02-05T19:55:54.485Z,-2.42
2023-02-05T19:58:28.047Z,-2.36
2023-02-05T20:01:02.822Z,-2.33
2023-02-05T20:03:36.517Z,-2.29
2023-02-05T20:06:11.562Z,-2.19
2023-02-05T20:08:46.328Z,-2.30
2023-02-05T20:11:20.403Z,-2.39
2023-02-05T20:13:54.425Z,-2.50
2023-02-05T20:16:29.255Z,-2.41
2023-02-05T20:19:02.744Z,-2.30
2023-02-05T20:21:36.209Z,-2.30
2023-02-05T20:24:10.365Z,-2.24
2023-02-05T20:26:43.947Z,-2.36
2023-02-05T20:29:34.869Z,-2.49
2023-02-05T20:32:10.768Z,-2.44
2023-02-05T20:34:47.719Z,-2.52
2023-02-05T20:37:22.225Z,-2.48
2023-02-05T20:39:57.605Z,-2.45
2023-02-05T20:42:31.318Z,-2.53
2023-02-05T20:45:05.120Z,-2.49
2023-02-05T20:47:39.829Z,-2.45
2023-02-05T20:50:13.380Z,-2.39
2023-02-05T20:52:46.884Z,-2.39
2023-02-05T20:55:20.534Z,-2.38
2023-02-05T20:57:54.456Z,-2.56
2023-02-05T21:00:28.325Z,-2.46
2023-02-05T21:03:03.072Z,-2.59
2023-02-05T21:05:36.375Z,-2.56
2023-02-05T21:08:09.644Z,-2.64
2023-02-05T21:10:43.044Z,-2.52
2023-02-05T21:13:16.909Z,-2.50
2023-02-05T21:15:55.104Z,-2.56
2023-02-05T21:18:30.858Z,-2.70
2023-02-05T21:21:08.040Z,-2.64
2023-02-05T21:23:42.218Z,-2.72
2023-02-05T21:26:20.993Z,-2.67
2023-02-05T21:28:55.386Z,-2.71
2023-02-05T21:31:34.026Z,-2.74
2023-02-05T21:34:10.520Z,-2.76
2023-02-05T21:36:43.998Z,-2.74
2023-02-05T21:39:20.181Z,-2.71
2023-02-05T21:41:54.248Z,-2.62
2023-02-05T21:44:27.726Z,-2.59
2023-02-05T21:47:01.253Z,-2.73
2023-02-05T21:49:36.554Z,-2.65
2023-02-05T21:52:10.275Z,-2.74
2023-02-05T21:54:43.649Z,-2.67
2023-02-05T21:57:16.898Z,-2.75
2023-02-05T21:59:50.265Z,-2.76
2023-02-05T22:02:23.696Z,-2.72
2023-02-05T22:04:58.429Z,-2.71
2023-02-05T22:07:31.895Z,-2.59
2023-02-05T22:10:06.096Z,-2.70
2023-02-05T22:12:40.053Z,-2.65
2023-02-05T22:15:14.319Z,-2.72
2023-02-05T22:17:47.881Z,-2.58
2023-02-05T22:20:22.642Z,-2.65
2023-02-05T22:22:56.384Z,-2.77
2023-02-05T22:25:29.924Z,-2.74
2023-02-05T22:28:03.413Z,-2.71
2023-02-05T22:30:36.753Z,-2.85
2023-02-05T22:33:09.971Z,-2.76
2023-02-05T22:35:44.920Z,-2.84
2023-02-05T22:38:18.179Z,-2.87
2023-02-05T22:40:52.938Z,-2.97
2023-02-05T22:43:26.190Z,-2.91
2023-02-05T22:46:05.043Z,-2.82
2023-02-05T22:48:39.914Z,-2.91
2023-02-05T22:51:17.643Z,-2.97
2023-02-05T22:53:51.282Z,-2.91
2023-02-05T22:56:25.442Z,-3.02
2023-02-05T22:59:00.254Z,-2.95
2023-02-05T23:01:38.306Z,-3.01
2023-02-05T23:04:12.655Z,-2.99
2023-02-05T23:06:48.104Z,-2.82
2023-02-05T23:09:21.885Z,-2.96
2023-02-05T23:11:56.862Z,-2.97
2023-02-05T23:14:30.766Z,-2.93
2023-02-05T23:17:04.688Z,-2.91
2023-02-05T23:19:37.954Z,-2.92
2023-02-05T23:22:12.622Z,-2.95
2023-02-05T23:24:46.377Z,-2.97
2023-02-05T23:27:19.614Z,-3.01
2023-02-05T23:29:52.968Z,-2.91
2023-02-05T23:32:26.552Z,-2.93
2023-02-05T23:34:59.760Z,-3.03
2023-02-05T23:37:34.924Z,-2.95
2023-02-05T23:40:09.982Z,-2.93
2023-02-05T23:42:43.665Z,-2.86
2023-02-05T23:45:17.031Z,-2.89
2023-02-05T23:47:50.117Z,-2.97
2023-02-05T23:50:23.585Z,-3.03
2023-02-05T23:52:58.285Z,-3.05
2023-02-05T23:55:31.814Z,-2.98
2023-02-05T23:58:06.514Z,-2.92
